This is the latest recevied weather packets stored in our database for station/object OE6JVE-13. If no packets are shown the sender has not sent any weather packets the latest 10 day(s).
| Time | Temp. | Humidity | Pressure | Rain* | Wind** | Luminosity | Snow |
|---|---|---|---|---|---|---|---|
| 1788315045 | 16.11° C | 93% | 1013.8 hPa | 3.05 mm | - | - | - |
| 1788314454 | 16.11° C | 92% | 1013.8 hPa | 3.05 mm | - | - | - |
| 1788313861 | 16.11° C | 91% | 1014.1 hPa | 2.79 mm | - | - | - |
| 1788313269 | 16.67° C | 90% | 1014.3 hPa | 2.29 mm | - | - | - |
| 1788312678 | 16.67° C | 87% | 1014.5 hPa | 1.78 mm | - | - | - |
| 1788312020 | 17.22° C | 83% | 1014.6 hPa | 0.76 mm | - | - | - |
| 1788311428 | 17.78° C | 79% | 1014.6 hPa | 0.25 mm | - | - | - |
| 1788310837 | 17.22° C | 86% | 1014.2 hPa | 0 mm | - | - | - |
| 1788310243 | 15.56° C | 94% | 1013.8 hPa | 0 mm | - | - | - |
| 1788309655 | 14.44° C | 93% | 1013.5 hPa | 0 mm | - | - | - |
| 1788309059 | 14.44° C | 93% | 1013.3 hPa | 0 mm | - | - | - |
| 1788308467 | 14.44° C | 93% | 1013.2 hPa | 0 mm | - | - | - |
| 1788307875 | 14.44° C | 93% | 1013.2 hPa | 0 mm | - | - | - |
| 1788307217 | 14.44° C | 92% | 1013.2 hPa | 0 mm | - | - | - |
| 1788306822 | 14.44° C | 92% | 1013.3 hPa | 0 mm | - | - | - |
| 1788306034 | 13.89° C | 92% | 1013.2 hPa | 0 mm | - | - | - |
| 1788305441 | 13.89° C | 91% | 1013.3 hPa | 0 mm | - | - | - |
| 1788304849 | 13.89° C | 91% | 1013.2 hPa | 0 mm | - | - | - |
| 1788304257 | 13.89° C | 91% | 1013.1 hPa | 0 mm | - | - | - |
| 1788303725 | 13.89° C | 91% | 1013.1 hPa | 0 mm | - | - | - |
| 1788303072 | 14.44° C | 90% | 1013 hPa | 0 mm | - | - | - |
| 1788302415 | 14.44° C | 90% | 1013 hPa | 0 mm | - | - | - |
| 1788301822 | 14.44° C | 90% | 1013.1 hPa | 0 mm | - | - | - |
| 1788301230 | 14.44° C | 90% | 1013.1 hPa | 0 mm | - | - | - |
| 1788300046 | 15° C | 89% | 1013 hPa | 0 mm | - | - | - |
* Rain latest hour (hover to see other rain measurements)
** Current wind speed in m/s (hover to see current wind gust speed)